Time;durP1;ratioP1;P1;durP2;ratioP2;P2;SDS_P1;SDS_P2;PMS_P1;PMS_P2;Temp;Humidity;BMP_temperature;BMP_pressure;BME280_temperature;BME280_humidity;BME280_pressure;Samples;Min_cycle;Max_cycle;Signal;HPM_P1;HPM_P2
2021/07/12 00:01:04;;;;;;;47.17;31.80;;;;;;;16.09;100.00;101444.91;3587014;39;20573;-61
2021/07/12 00:03:30;;;;;;;50.45;34.83;;;;;;;16.12;100.00;101441.00;3589593;39;20332;-60
2021/07/12 00:05:57;;;;;;;60.35;39.00;;;;;;;16.03;100.00;101442.84;3579846;39;20449;-61
2021/07/12 00:08:25;;;;;;;54.63;35.40;;;;;;;16.06;100.00;101442.53;3581514;39;20587;-61
2021/07/12 00:10:51;;;;;;;54.45;37.38;;;;;;;15.97;100.00;101440.72;3587311;39;21780;-61
2021/07/12 00:13:18;;;;;;;57.53;37.95;;;;;;;15.88;100.00;101447.13;3588426;39;20032;-61
2021/07/12 00:15:45;;;;;;;58.33;37.33;;;;;;;15.97;100.00;101435.31;3583184;39;20047;-59
2021/07/12 00:18:11;;;;;;;49.08;34.13;;;;;;;15.99;100.00;101437.84;3583865;39;20346;-61
2021/07/12 00:20:38;;;;;;;50.38;34.75;;;;;;;15.98;100.00;101433.47;3589905;39;20046;-61
2021/07/12 00:23:05;;;;;;;56.17;37.75;;;;;;;15.89;100.00;101429.81;3585587;39;20036;-61
2021/07/12 00:25:33;;;;;;;56.42;37.65;;;;;;;15.86;100.00;101430.16;3590444;39;20048;-61
2021/07/12 00:27:59;;;;;;;54.25;36.30;;;;;;;15.89;100.00;101435.25;3585703;39;20064;-61
2021/07/12 00:30:27;;;;;;;52.83;36.58;;;;;;;15.88;100.00;101428.13;3584636;39;20054;-64
2021/07/12 00:32:56;;;;;;;51.47;34.17;;;;;;;15.77;100.00;101421.03;3584837;39;20506;-62
2021/07/12 00:35:25;;;;;;;50.45;35.92;;;;;;;15.71;100.00;101417.09;3588707;39;20401;-62
2021/07/12 00:37:52;;;;;;;56.72;36.33;;;;;;;15.63;100.00;101413.44;3585575;39;21133;-63
2021/07/12 00:40:20;;;;;;;59.83;38.65;;;;;;;15.56;100.00;101407.78;3585498;39;20038;-62
2021/07/12 00:42:49;;;;;;;59.85;38.30;;;;;;;15.49;100.00;101407.56;3585398;39;20651;-62
2021/07/12 00:45:20;;;;;;;54.88;38.30;;;;;;;15.44;100.00;101412.59;3592493;39;20036;-62
2021/07/12 00:47:47;;;;;;;70.78;42.85;;;;;;;15.45;100.00;101405.31;3585222;39;21044;-62
2021/07/12 00:50:15;;;;;;;66.93;42.78;;;;;;;15.37;100.00;101395.22;3588919;39;20068;-61
2021/07/12 00:52:42;;;;;;;72.78;44.33;;;;;;;15.36;100.00;101405.22;3587386;39;20043;-62
2021/07/12 00:55:17;;;;;;;58.72;38.22;;;;;;;15.42;100.00;101401.06;3584215;39;20056;-62
2021/07/12 00:57:44;;;;;;;55.97;38.88;;;;;;;15.36;100.00;101394.38;3588041;39;20383;-62
2021/07/12 01:00:14;;;;;;;65.97;41.70;;;;;;;15.40;100.00;101392.22;3585487;39;20060;-62
2021/07/12 01:02:41;;;;;;;71.82;43.15;;;;;;;15.37;100.00;101390.66;3580800;39;20063;-62
2021/07/12 01:05:11;;;;;;;59.42;40.63;;;;;;;15.38;100.00;101389.63;3583683;39;20050;-62
2021/07/12 01:07:38;;;;;;;68.28;42.28;;;;;;;15.38;100.00;101397.78;3589692;39;20052;-62
2021/07/12 01:10:05;;;;;;;66.10;42.65;;;;;;;15.53;100.00;101399.94;3589383;39;20060;-61
2021/07/12 01:12:38;;;;;;;59.05;39.00;;;;;;;15.40;100.00;101384.09;3589887;39;20110;-62
2021/07/12 01:15:12;;;;;;;63.65;40.85;;;;;;;15.48;100.00;101384.16;3587070;39;20063;-62
2021/07/12 01:17:49;;;;;;;62.40;41.22;;;;;;;15.51;100.00;101378.41;3589078;39;20051;-62
2021/07/12 01:20:35;;;;;;;62.83;41.92;;;;;;;15.47;100.00;101376.16;3590243;39;20047;-61
2021/07/12 01:23:30;;;;;;;70.40;44.38;;;;;;;15.41;100.00;101372.22;3589746;39;20035;-62
2021/07/12 01:26:47;;;;;;;66.70;43.25;;;;;;;15.50;100.00;101370.44;3589001;39;20061;-62
2021/07/12 01:29:24;;;;;;;65.15;42.40;;;;;;;15.43;100.00;101375.63;3589185;39;20050;-63
2021/07/12 01:32:37;;;;;;;68.38;43.72;;;;;;;15.42;100.00;101363.91;3585612;39;20055;-62
2021/07/12 01:35:10;;;;;;;68.95;44.20;;;;;;;15.44;100.00;101366.47;3585633;39;20051;-61
2021/07/12 01:37:44;;;;;;;67.13;41.55;;;;;;;15.49;100.00;101360.56;3586190;39;20072;-62
2021/07/12 01:40:15;;;;;;;68.15;42.55;;;;;;;15.42;100.00;101358.50;3584901;39;20044;-61
2021/07/12 01:42:48;;;;;;;72.38;45.35;;;;;;;15.40;100.00;101365.94;3587542;39;20051;-61
2021/07/12 01:45:17;;;;;;;64.88;40.63;;;;;;;15.33;100.00;101367.56;3588793;39;20028;-62
2021/07/12 01:47:53;;;;;;;67.68;42.85;;;;;;;15.33;100.00;101359.44;3587785;39;20052;-61
2021/07/12 01:50:26;;;;;;;69.80;42.70;;;;;;;15.31;100.00;101371.44;3590259;39;20034;-62
2021/07/12 01:53:06;;;;;;;73.53;44.88;;;;;;;15.19;100.00;101357.25;3586168;39;20035;-62
2021/07/12 01:55:38;;;;;;;69.90;42.92;;;;;;;15.28;100.00;101350.91;3590519;39;20039;-62
2021/07/12 01:58:11;;;;;;;70.05;43.88;;;;;;;15.38;100.00;101348.13;3586031;39;20988;-62
2021/07/12 02:00:40;;;;;;;71.80;43.83;;;;;;;15.37;100.00;101347.28;3587418;39;20409;-62
2021/07/12 02:03:10;;;;;;;66.60;41.47;;;;;;;15.37;100.00;101349.09;3590993;39;21365;-61
2021/07/12 02:05:40;;;;;;;65.53;42.17;;;;;;;15.36;100.00;101340.13;3586074;39;20043;-62
2021/07/12 02:08:09;;;;;;;61.65;40.67;;;;;;;15.36;100.00;101337.41;3590538;39;20059;-62
2021/07/12 02:10:38;;;;;;;57.38;38.10;;;;;;;15.33;100.00;101345.88;3587081;39;20317;-61
2021/07/12 02:13:06;;;;;;;53.72;37.42;;;;;;;15.34;100.00;101336.75;3589318;39;20583;-61
2021/07/12 02:15:34;;;;;;;60.22;40.17;;;;;;;15.29;100.00;101341.75;3586003;39;20045;-61
2021/07/12 02:18:01;;;;;;;66.22;40.50;;;;;;;15.26;100.00;101336.66;3585752;39;20132;-62
2021/07/12 02:20:32;;;;;;;63.28;42.63;;;;;;;15.24;100.00;101330.53;3588811;39;20109;-61
2021/07/12 02:23:00;;;;;;;67.22;42.75;;;;;;;15.25;100.00;101334.94;3586169;39;20094;-61
2021/07/12 02:25:27;;;;;;;66.22;43.38;;;;;;;15.34;100.00;101334.03;3590724;39;20032;-61
2021/07/12 02:27:54;;;;;;;62.13;41.15;;;;;;;15.45;100.00;101332.91;3585270;39;20736;-61
2021/07/12 02:30:23;;;;;;;69.25;43.38;;;;;;;15.40;100.00;101322.53;3584342;39;20451;-62
2021/07/12 02:32:50;;;;;;;56.15;38.28;;;;;;;15.52;100.00;101325.03;3589911;39;21493;-61
2021/07/12 02:35:17;;;;;;;55.45;39.17;;;;;;;15.52;100.00;101325.03;3589017;39;20278;-61
2021/07/12 02:37:46;;;;;;;68.60;42.67;;;;;;;15.49;100.00;101319.88;3589140;39;20028;-62
2021/07/12 02:40:15;;;;;;;69.40;44.28;;;;;;;15.38;100.00;101324.53;3588042;39;20043;-62
2021/07/12 02:42:44;;;;;;;68.00;43.03;;;;;;;15.29;100.00;101313.81;3585532;39;21239;-62
2021/07/12 02:45:12;;;;;;;60.60;41.53;;;;;;;15.34;100.00;101312.31;3584265;39;20052;-61
2021/07/12 02:47:40;;;;;;;68.32;41.50;;;;;;;15.39;100.00;101315.41;3584467;39;21352;-62
2021/07/12 02:50:08;;;;;;;61.05;41.30;;;;;;;15.38;100.00;101319.13;3587547;39;20051;-62
2021/07/12 02:52:40;;;;;;;65.97;42.23;;;;;;;15.42;100.00;101323.22;3584181;39;20053;-61
2021/07/12 02:55:09;;;;;;;62.88;40.85;;;;;;;15.37;100.00;101320.16;3585142;39;20390;-61
2021/07/12 02:57:35;;;;;;;67.38;42.25;;;;;;;15.34;100.00;101312.31;3584358;39;20039;-62
2021/07/12 03:00:02;;;;;;;66.57;42.40;;;;;;;15.40;100.00;101308.97;3585538;39;20091;-61
2021/07/12 03:02:28;;;;;;;68.38;41.65;;;;;;;15.42;100.00;101304.25;3587534;39;20051;-62
2021/07/12 03:04:55;;;;;;;64.90;42.20;;;;;;;15.49;100.00;101303.59;3584808;39;20550;-61
2021/07/12 03:07:26;;;;;;;65.35;43.33;;;;;;;15.47;100.00;101306.47;3584733;39;20051;-62
2021/07/12 03:09:55;;;;;;;69.57;44.30;;;;;;;15.47;100.00;101305.63;3587047;39;20099;-62
2021/07/12 03:12:28;;;;;;;62.08;39.88;;;;;;;15.41;100.00;101302.56;3586310;39;20059;-62
2021/07/12 03:15:06;;;;;;;62.75;40.30;;;;;;;15.44;100.00;101297.81;3583339;39;20124;-63
2021/07/12 03:17:36;;;;;;;63.58;40.85;;;;;;;15.43;100.00;101299.69;3583150;39;20394;-63
2021/07/12 03:20:06;;;;;;;61.92;42.28;;;;;;;15.41;100.00;101294.41;3586536;39;20052;-63
2021/07/12 03:22:35;;;;;;;56.08;37.60;;;;;;;15.32;100.00;101295.34;3582375;39;20444;-64
2021/07/12 03:25:02;;;;;;;62.20;40.55;;;;;;;15.23;100.00;101289.00;3588488;39;20301;-63
2021/07/12 03:27:31;;;;;;;63.53;40.08;;;;;;;15.24;100.00;101274.44;3584186;39;20043;-63
2021/07/12 03:30:01;;;;;;;56.08;38.40;;;;;;;15.26;100.00;101277.00;3584146;39;20047;-62
2021/07/12 03:32:31;;;;;;;51.20;35.95;;;;;;;15.27;100.00;101272.41;3583747;39;20603;-63
2021/07/12 03:34:58;;;;;;;57.75;38.53;;;;;;;15.22;100.00;101276.47;3586091;39;20043;-62
2021/07/12 03:37:26;;;;;;;53.90;36.63;;;;;;;15.23;100.00;101277.31;3586776;39;20059;-63
2021/07/12 03:39:53;;;;;;;50.30;36.05;;;;;;;15.20;100.00;101283.03;3588376;39;20046;-63
2021/07/12 03:42:21;;;;;;;51.13;34.97;;;;;;;15.26;100.00;101276.16;3582918;39;20055;-63
2021/07/12 03:44:49;;;;;;;51.75;36.35;;;;;;;15.16;100.00;101281.66;3588094;39;20059;-63
2021/07/12 03:47:26;;;;;;;57.08;36.75;;;;;;;15.15;100.00;101288.06;3584403;39;20136;-64
2021/07/12 03:49:53;;;;;;;62.38;39.35;;;;;;;15.16;100.00;101284.34;3586401;39;20027;-63
2021/07/12 03:52:22;;;;;;;55.05;37.05;;;;;;;15.18;100.00;101283.19;3584119;39;20057;-64
2021/07/12 03:54:48;;;;;;;62.63;40.50;;;;;;;15.25;100.00;101280.69;3584988;39;20466;-64
2021/07/12 03:57:15;;;;;;;62.05;38.08;;;;;;;15.29;100.00;101275.84;3584045;39;20035;-63
2021/07/12 03:59:42;;;;;;;59.70;38.85;;;;;;;15.36;100.00;101277.75;3585110;39;20059;-63
2021/07/12 04:02:10;;;;;;;62.88;41.22;;;;;;;15.38;100.00;101278.44;3584440;39;20036;-63
2021/07/12 04:04:36;;;;;;;73.28;42.13;;;;;;;15.40;100.00;101278.31;3590688;39;20043;-62
2021/07/12 04:07:03;;;;;;;54.20;37.92;;;;;;;15.49;100.00;101273.75;3588125;39;20082;-63
2021/07/12 04:09:29;;;;;;;64.68;42.83;;;;;;;15.56;100.00;101277.53;3585397;39;20359;-63
2021/07/12 04:11:57;;;;;;;63.30;41.05;;;;;;;15.59;100.00;101278.09;3584807;39;21946;-64
2021/07/12 04:14:23;;;;;;;63.03;39.53;;;;;;;15.66;100.00;101286.44;3584422;39;20317;-63
2021/07/12 04:16:50;;;;;;;59.38;39.08;;;;;;;15.65;100.00;101281.16;3582969;39;20557;-63
2021/07/12 04:19:17;;;;;;;59.50;39.65;;;;;;;15.75;100.00;101277.38;3583518;39;20092;-63
2021/07/12 04:21:44;;;;;;;58.60;39.53;;;;;;;15.91;100.00;101283.91;3586514;39;20045;-63
2021/07/12 04:24:10;;;;;;;63.90;39.70;;;;;;;16.03;100.00;101284.50;3583182;39;20040;-63
2021/07/12 04:26:37;;;;;;;56.83;37.15;;;;;;;16.15;100.00;101276.91;3584072;39;20421;-63
2021/07/12 04:29:06;;;;;;;57.83;39.63;;;;;;;16.23;100.00;101285.09;3586213;39;20050;-63
2021/07/12 04:31:33;;;;;;;56.78;39.08;;;;;;;16.38;100.00;101288.91;3584429;39;20043;-63
2021/07/12 04:33:59;;;;;;;60.15;38.92;;;;;;;16.41;100.00;101279.56;3582673;39;20056;-63
2021/07/12 04:36:27;;;;;;;60.92;40.90;;;;;;;16.45;100.00;101276.34;3587645;39;20691;-63
2021/07/12 04:38:53;;;;;;;54.60;36.40;;;;;;;16.59;100.00;101280.31;3583044;39;20050;-62
2021/07/12 04:41:20;;;;;;;62.78;40.03;;;;;;;16.61;100.00;101277.44;3585516;39;21242;-63
2021/07/12 04:43:46;;;;;;;60.28;40.10;;;;;;;16.70;100.00;101281.88;3589176;39;20407;-63
2021/07/12 04:46:13;;;;;;;56.78;38.80;;;;;;;16.84;100.00;101277.63;3588280;39;20050;-60
2021/07/12 04:48:40;;;;;;;55.45;37.92;;;;;;;16.91;100.00;101288.75;3584518;39;20050;-63
2021/07/12 04:51:06;;;;;;;58.50;38.97;;;;;;;16.98;100.00;101279.75;3587971;39;20069;-63
2021/07/12 04:53:34;;;;;;;57.08;37.63;;;;;;;16.96;100.00;101280.91;3583480;39;20041;-63
2021/07/12 04:56:02;;;;;;;66.68;42.45;;;;;;;16.95;100.00;101277.38;3584034;39;20488;-62
2021/07/12 04:58:31;;;;;;;61.80;41.15;;;;;;;17.04;100.00;101275.50;3588546;39;20064;-62
2021/07/12 05:00:58;;;;;;;67.75;42.55;;;;;;;17.08;100.00;101276.03;3590573;39;20382;-62
2021/07/12 05:03:30;;;;;;;67.38;43.53;;;;;;;17.20;100.00;101269.22;3583267;39;20040;-63
2021/07/12 05:05:57;;;;;;;59.58;39.67;;;;;;;17.35;100.00;101274.84;3584771;39;20226;-62
2021/07/12 05:08:24;;;;;;;64.65;42.05;;;;;;;17.37;100.00;101275.50;3590839;39;20059;-63
2021/07/12 05:10:52;;;;;;;69.53;43.78;;;;;;;17.22;100.00;101271.78;3585804;39;20063;-63
2021/07/12 05:13:18;;;;;;;73.20;45.65;;;;;;;17.22;100.00;101269.06;3586444;39;20082;-62
2021/07/12 05:15:45;;;;;;;69.75;44.10;;;;;;;17.49;100.00;101268.72;3585554;39;20044;-62
2021/07/12 05:18:12;;;;;;;67.82;43.47;;;;;;;17.66;100.00;101261.34;3584768;39;20699;-63
2021/07/12 05:20:38;;;;;;;67.50;44.17;;;;;;;17.51;100.00;101252.22;3590697;39;20028;-63
2021/07/12 05:23:05;;;;;;;69.55;44.75;;;;;;;17.51;100.00;101255.75;3586290;39;20504;-63
2021/07/12 05:25:31;;;;;;;68.55;44.45;;;;;;;17.58;100.00;101247.78;3586069;39;20070;-62
2021/07/12 05:27:59;;;;;;;68.85;42.75;;;;;;;17.77;100.00;101238.38;3586855;39;20082;-62
2021/07/12 05:30:26;;;;;;;57.13;38.28;;;;;;;17.96;100.00;101233.56;3585361;39;20066;-63
2021/07/12 05:32:53;;;;;;;57.78;40.22;;;;;;;18.17;100.00;101236.56;3586568;39;20032;-62
2021/07/12 05:35:19;;;;;;;55.78;39.03;;;;;;;18.21;100.00;101227.00;3586435;39;20060;-61
2021/07/12 05:37:46;;;;;;;55.80;39.03;;;;;;;18.45;100.00;101227.06;3586847;39;20035;-61
2021/07/12 05:40:13;;;;;;;54.47;38.90;;;;;;;18.44;100.00;101226.19;3588594;39;20044;-61
2021/07/12 05:42:39;;;;;;;60.08;39.92;;;;;;;18.46;100.00;101223.28;3585975;39;20290;-62
2021/07/12 05:45:09;;;;;;;55.50;39.42;;;;;;;18.23;100.00;101212.34;3587988;39;20584;-61
2021/07/12 05:47:35;;;;;;;50.78;37.70;;;;;;;18.63;100.00;101213.16;3587478;39;20279;-61
2021/07/12 05:50:03;;;;;;;50.80;37.42;;;;;;;18.78;100.00;101211.31;3591823;39;20132;-61
2021/07/12 05:52:31;;;;;;;49.40;36.28;;;;;;;18.70;100.00;101209.50;3592812;39;20064;-61
2021/07/12 05:54:58;;;;;;;45.65;34.00;;;;;;;18.78;100.00;101205.88;3586077;39;20032;-62
2021/07/12 05:57:24;;;;;;;42.45;32.38;;;;;;;18.85;100.00;101206.84;3590882;39;20052;-61
2021/07/12 05:59:51;;;;;;;42.30;32.33;;;;;;;19.07;100.00;101196.13;3588790;39;20047;-61
2021/07/12 06:02:19;;;;;;;45.80;33.72;;;;;;;19.05;100.00;101195.47;3594085;39;20069;-61
2021/07/12 06:04:46;;;;;;;39.92;32.60;;;;;;;19.06;100.00;101186.25;3585304;39;20391;-61
2021/07/12 06:07:12;;;;;;;41.13;30.92;;;;;;;19.10;100.00;101190.31;3590291;39;20048;-61
2021/07/12 06:09:39;;;;;;;42.83;32.50;;;;;;;19.24;100.00;101189.50;3585419;39;20032;-61
2021/07/12 06:12:06;;;;;;;40.28;30.98;;;;;;;19.43;100.00;101198.16;3585275;39;20136;-61
2021/07/12 06:14:33;;;;;;;39.15;30.95;;;;;;;19.31;100.00;101199.66;3581590;39;20043;-62
2021/07/12 06:17:00;;;;;;;37.20;29.88;;;;;;;19.36;100.00;101205.41;3582909;39;20383;-61
2021/07/12 06:19:27;;;;;;;41.05;32.08;;;;;;;19.17;100.00;101199.47;3583835;39;20718;-61
2021/07/12 06:21:54;;;;;;;37.40;30.90;;;;;;;19.52;100.00;101199.81;3584740;39;20047;-61
2021/07/12 06:24:20;;;;;;;33.95;28.45;;;;;;;19.78;100.00;101196.63;3583276;39;20302;-61
2021/07/12 06:26:47;;;;;;;40.72;31.83;;;;;;;19.46;100.00;101202.41;3583912;39;20071;-61
2021/07/12 06:29:13;;;;;;;38.33;30.27;;;;;;;19.68;100.00;101206.09;3583443;39;20453;-61
2021/07/12 06:31:40;;;;;;;44.05;33.25;;;;;;;19.59;100.00;101205.34;3582891;39;20043;-61
2021/07/12 06:34:06;;;;;;;37.72;30.45;;;;;;;19.74;100.00;101216.28;3583880;39;20673;-60
2021/07/12 06:36:34;;;;;;;36.95;30.38;;;;;;;19.87;100.00;101211.03;3589434;39;20041;-61
2021/07/12 06:39:00;;;;;;;34.97;29.08;;;;;;;19.82;100.00;101209.91;3589601;39;20051;-61
2021/07/12 06:41:27;;;;;;;39.58;29.30;;;;;;;20.18;100.00;101217.31;3585995;39;20055;-62
2021/07/12 06:43:55;;;;;;;31.23;26.55;;;;;;;20.34;100.00;101210.78;3588142;39;20054;-62
2021/07/12 06:46:21;;;;;;;35.75;28.48;;;;;;;20.02;100.00;101212.91;3587141;39;20344;-61
2021/07/12 06:48:48;;;;;;;35.95;29.67;;;;;;;20.10;100.00;101212.81;3585968;39;20043;-60
2021/07/12 06:51:14;;;;;;;38.65;31.35;;;;;;;20.14;100.00;101225.06;3593307;39;20342;-62
2021/07/12 06:53:42;;;;;;;37.30;29.85;;;;;;;20.15;100.00;101220.44;3585771;39;20536;-61
2021/07/12 06:56:08;;;;;;;34.25;28.27;;;;;;;20.38;100.00;101212.09;3584355;39;20305;-61
2021/07/12 06:58:35;;;;;;;34.22;27.55;;;;;;;20.37;100.00;101213.13;3584559;39;20769;-62
2021/07/12 07:01:01;;;;;;;33.47;27.00;;;;;;;20.49;100.00;101214.31;3588582;39;20105;-61
2021/07/12 07:03:28;;;;;;;33.88;27.17;;;;;;;20.69;100.00;101216.47;3585420;39;20136;-61
2021/07/12 07:05:54;;;;;;;31.35;26.35;;;;;;;21.29;100.00;101208.78;3585616;39;20391;-62
2021/07/12 07:08:20;;;;;;;30.88;25.92;;;;;;;21.49;100.00;101203.47;3586023;39;20044;-61
2021/07/12 07:10:48;;;;;;;29.15;23.63;;;;;;;21.58;100.00;101205.03;3588529;39;20046;-61
2021/07/12 07:13:15;;;;;;;26.83;22.92;;;;;;;21.98;100.00;101202.53;3585643;39;20039;-61
2021/07/12 07:15:41;;;;;;;29.70;22.65;;;;;;;22.17;100.00;101200.06;3585725;39;20410;-62
2021/07/12 07:18:08;;;;;;;26.83;23.15;;;;;;;22.05;100.00;101206.16;3583235;39;20040;-62
2021/07/12 07:20:34;;;;;;;28.63;24.02;;;;;;;21.35;100.00;101211.59;3587392;39;20179;-62
2021/07/12 07:23:01;;;;;;;26.30;21.85;;;;;;;21.33;100.00;101210.97;3590194;39;20045;-61
2021/07/12 07:25:27;;;;;;;25.15;21.73;;;;;;;21.49;100.00;101198.00;3590273;39;20042;-62
2021/07/12 07:27:56;;;;;;;25.95;20.80;;;;;;;21.84;100.00;101190.66;3589242;39;20412;-62
2021/07/12 07:30:22;;;;;;;24.98;20.63;;;;;;;22.03;100.00;101194.53;3585392;39;21557;-63
2021/07/12 07:32:49;;;;;;;25.88;21.15;;;;;;;22.03;100.00;101190.97;3585629;39;20045;-62
2021/07/12 07:35:17;;;;;;;26.38;21.13;;;;;;;21.62;100.00;101195.38;3586303;39;20060;-62
2021/07/12 07:37:46;;;;;;;23.50;20.57;;;;;;;21.52;100.00;101198.50;3587783;39;20121;-63
2021/07/12 07:40:14;;;;;;;23.48;20.65;;;;;;;21.60;100.00;101191.13;3585012;39;20061;-62
2021/07/12 07:42:41;;;;;;;23.40;20.00;;;;;;;21.69;100.00;101181.72;3587441;39;20042;-62
2021/07/12 07:45:11;;;;;;;20.02;17.42;;;;;;;21.83;100.00;101171.66;3585612;39;21219;-63
2021/07/12 07:47:37;;;;;;;18.63;16.27;;;;;;;22.11;100.00;101157.03;3585297;39;20040;-64
2021/07/12 07:50:05;;;;;;;18.17;16.25;;;;;;;22.10;100.00;101161.69;3588747;39;20271;-62
2021/07/12 07:52:31;;;;;;;15.95;14.10;;;;;;;22.71;100.00;101159.94;3598756;39;20051;-63
2021/07/12 07:54:58;;;;;;;15.20;13.15;;;;;;;22.96;100.00;101157.44;3584153;39;20055;-63
2021/07/12 07:57:24;;;;;;;12.95;11.55;;;;;;;23.33;100.00;101159.75;3585086;39;20068;-63
2021/07/12 07:59:51;;;;;;;7.28;6.57;;;;;;;23.03;100.00;101155.53;3588160;39;20064;-63
2021/07/12 08:02:53;;;;;;;8.43;7.28;;;;;;;22.79;100.00;101159.75;3622053;22;20070;-62
2021/07/12 08:05:21;;;;;;;8.85;6.80;;;;;;;23.00;100.00;101149.63;3568241;39;20052;-62
2021/07/12 08:07:48;;;;;;;7.10;6.20;;;;;;;22.35;100.00;101156.53;3570422;40;20196;-62
2021/07/12 08:10:17;;;;;;;9.57;7.53;;;;;;;22.61;100.00;101154.03;3571375;40;20072;-62
2021/07/12 08:12:45;;;;;;;7.95;7.15;;;;;;;23.22;100.00;101139.31;3566986;40;20036;-64
2021/07/12 08:15:13;;;;;;;9.00;6.87;;;;;;;23.56;100.00;101146.41;3565810;40;20583;-62
2021/07/12 08:17:41;;;;;;;9.98;7.85;;;;;;;23.64;100.00;101137.06;3566151;40;20282;-61
2021/07/12 08:20:11;;;;;;;9.50;8.07;;;;;;;23.17;100.00;101133.59;3564665;40;20118;-62
2021/07/12 08:22:39;;;;;;;7.07;5.72;;;;;;;23.53;100.00;101137.75;3564830;40;20049;-64
2021/07/12 08:25:08;;;;;;;6.72;5.93;;;;;;;23.61;100.00;101141.13;3564352;40;20033;-62
2021/07/12 08:27:35;;;;;;;7.13;6.43;;;;;;;23.83;100.00;101126.25;3565921;40;20354;-63
2021/07/12 08:30:02;;;;;;;6.28;5.20;;;;;;;23.18;100.00;101130.63;3571472;40;20118;-62
2021/07/12 08:32:28;;;;;;;5.28;4.70;;;;;;;22.34;100.00;101119.16;3569383;40;20549;-61
2021/07/12 08:34:55;;;;;;;6.22;5.03;;;;;;;22.57;100.00;101124.28;3569265;40;20053;-62
2021/07/12 08:37:21;;;;;;;5.90;4.63;;;;;;;22.71;100.00;101119.63;3569011;40;20462;-62
2021/07/12 08:39:49;;;;;;;4.25;3.85;;;;;;;23.27;100.00;101112.03;3566358;39;20129;-62
2021/07/12 08:42:16;;;;;;;5.20;3.67;;;;;;;23.57;100.00;101111.53;3565648;40;20042;-62
2021/07/12 08:44:42;;;;;;;5.63;4.80;;;;;;;23.60;100.00;101111.94;3572572;40;20084;-62
2021/07/12 08:47:09;;;;;;;5.53;4.70;;;;;;;23.65;100.00;101114.03;3567797;40;20048;-62
2021/07/12 08:49:36;;;;;;;5.07;4.57;;;;;;;23.87;100.00;101116.53;3565744;40;20054;-62
2021/07/12 08:52:04;;;;;;;4.38;3.97;;;;;;;23.71;100.00;101110.41;3564818;40;20426;-62
2021/07/12 08:54:30;;;;;;;4.00;3.60;;;;;;;23.95;100.00;101102.50;3571819;40;20034;-62
2021/07/12 08:56:58;;;;;;;4.13;3.72;;;;;;;23.91;100.00;101106.75;3568860;40;20033;-63
2021/07/12 08:59:28;;;;;;;5.63;4.00;;;;;;;24.14;100.00;101101.59;3572137;40;20310;-63
2021/07/12 09:02:03;;;;;;;5.63;4.00;;;;;;;24.27;100.00;101110.81;3569292;40;20046;-62
2021/07/12 09:04:29;;;;;;;4.63;4.13;;;;;;;24.30;100.00;101108.44;3570228;40;20048;-62
2021/07/12 09:07:01;;;;;;;5.50;4.30;;;;;;;24.48;100.00;101102.22;3571288;40;20052;-62
2021/07/12 09:09:27;;;;;;;5.45;3.83;;;;;;;24.45;100.00;101107.28;3570810;40;20044;-63
2021/07/12 09:11:54;;;;;;;5.07;4.57;;;;;;;24.38;100.00;101107.38;3569659;39;20048;-62
2021/07/12 09:14:23;;;;;;;5.40;4.00;;;;;;;24.52;100.00;101099.00;3569881;40;20040;-65
2021/07/12 09:16:51;;;;;;;4.93;3.53;;;;;;;24.75;100.00;101099.28;3571590;40;20032;-62
2021/07/12 09:19:24;;;;;;;4.65;4.18;;;;;;;24.38;100.00;101090.00;3570705;40;20068;-63
2021/07/12 09:21:54;;;;;;;4.22;3.65;;;;;;;23.84;100.00;101086.69;3572329;40;20047;-62
2021/07/12 09:26:51;;;;;;;4.10;3.70;;;;;;;23.53;100.00;101091.88;3635234;22;20056;-61
2021/07/12 09:29:19;;;;;;;4.00;3.60;;;;;;;23.99;100.00;101089.19;3595527;39;20047;-62
2021/07/12 09:31:47;;;;;;;4.40;3.97;;;;;;;24.48;100.00;101080.19;3592112;39;20129;-64
2021/07/12 09:34:14;;;;;;;4.00;3.60;;;;;;;25.66;100.00;101083.09;3597859;39;20935;-62
2021/07/12 09:36:41;;;;;;;5.32;4.30;;;;;;;25.20;100.00;101092.69;3597669;39;20413;-63
2021/07/12 09:39:22;;;;;;;4.68;4.10;;;;;;;24.83;100.00;101087.97;3593145;39;20042;-64
2021/07/12 09:41:49;;;;;;;4.90;3.97;;;;;;;24.25;100.00;101080.78;3600153;39;20530;-62
2021/07/12 09:44:18;;;;;;;5.85;4.00;;;;;;;24.30;100.00;101088.34;3593521;39;20570;-62
2021/07/12 09:46:46;;;;;;;5.45;4.30;;;;;;;23.72;100.00;101084.63;3593293;39;20965;-62
2021/07/12 09:49:14;;;;;;;4.88;3.70;;;;;;;23.84;100.00;101089.44;3599065;39;20032;-63
2021/07/12 09:51:41;;;;;;;4.53;3.92;;;;;;;23.93;100.00;101085.41;3596905;39;20082;-63
2021/07/12 09:54:19;;;;;;;3.92;3.60;;;;;;;24.48;100.00;101079.34;3589791;39;20422;-62
2021/07/12 09:56:46;;;;;;;5.88;3.90;;;;;;;24.23;100.00;101082.06;3592668;39;20051;-62
2021/07/12 09:59:13;;;;;;;4.25;3.55;;;;;;;24.38;100.00;101079.84;3597638;39;20345;-64
2021/07/12 10:01:41;;;;;;;6.07;4.10;;;;;;;24.46;100.00;101071.31;3594365;39;20077;-62
2021/07/12 10:04:09;;;;;;;3.70;3.38;;;;;;;24.44;100.00;101062.44;3595808;39;20503;-63
2021/07/12 10:06:36;;;;;;;4.32;3.92;;;;;;;25.07;100.00;101071.63;3594564;39;20031;-64
2021/07/12 10:09:02;;;;;;;6.93;4.07;;;;;;;25.62;100.00;101059.00;3592272;39;20044;-62
2021/07/12 10:11:29;;;;;;;4.70;3.60;;;;;;;26.08;100.00;101057.53;3597431;39;20309;-62
2021/07/12 10:13:56;;;;;;;6.93;3.97;;;;;;;26.25;100.00;101054.09;3593754;39;20359;-62
2021/07/12 10:16:23;;;;;;;5.32;4.40;;;;;;;25.91;100.00;101054.53;3592161;39;20055;-63
2021/07/12 10:18:51;;;;;;;4.75;4.25;;;;;;;25.57;100.00;101047.81;3594322;39;20011;-63
2021/07/12 10:21:19;;;;;;;9.50;4.20;;;;;;;25.55;100.00;101044.44;3609242;39;20042;-62
2021/07/12 10:23:45;;;;;;;4.65;4.20;;;;;;;25.17;100.00;101060.09;3623694;39;20377;-63
2021/07/12 10:26:12;;;;;;;6.85;4.80;;;;;;;25.13;100.00;101056.13;3615482;39;20061;-62
2021/07/12 10:28:40;;;;;;;7.03;4.38;;;;;;;24.52;100.00;101047.56;3615029;39;20039;-63
2021/07/12 10:31:17;;;;;;;4.43;4.03;;;;;;;24.70;100.00;101041.28;3601405;39;20035;-63
2021/07/12 10:33:44;;;;;;;4.40;4.00;;;;;;;24.30;100.00;101038.84;3596959;39;20028;-63
2021/07/12 10:36:10;;;;;;;4.32;3.67;;;;;;;24.94;100.00;101028.59;3593023;39;20368;-64
2021/07/12 10:38:40;;;;;;;4.10;3.70;;;;;;;24.90;100.00;101030.09;3592438;39;20044;-63
2021/07/12 10:41:18;;;;;;;3.72;3.42;;;;;;;24.59;100.00;101031.88;3591411;39;20036;-62
2021/07/12 10:43:48;;;;;;;4.13;3.70;;;;;;;24.46;100.00;101038.28;3591363;39;20041;-63
2021/07/12 10:46:38;;;;;;;3.97;3.58;;;;;;;24.68;100.00;101043.44;3591917;39;20035;-62
2021/07/12 10:49:26;;;;;;;6.80;4.05;;;;;;;24.83;100.00;101034.81;3595401;39;20398;-64
2021/07/12 10:51:54;;;;;;;4.28;3.88;;;;;;;25.92;100.00;101028.66;3593523;39;20051;-62
2021/07/12 10:54:22;;;;;;;5.60;3.90;;;;;;;25.92;100.00;101030.59;3597305;39;20401;-63
2021/07/12 10:56:54;;;;;;;4.43;3.80;;;;;;;25.98;100.00;101026.88;3597921;39;20119;-64
2021/07/12 10:59:25;;;;;;;4.72;3.60;;;;;;;26.15;100.00;101027.94;3597347;39;20417;-63
2021/07/12 11:01:53;;;;;;;4.07;3.67;;;;;;;25.90;100.00;101019.78;3598805;39;20126;-63
2021/07/12 11:04:38;;;;;;;4.32;3.92;;;;;;;25.66;100.00;101021.59;3593682;39;20046;-64
2021/07/12 11:07:08;;;;;;;4.85;3.42;;;;;;;25.86;100.00;101029.59;3592872;39;20035;-65
2021/07/12 11:09:56;;;;;;;5.40;3.20;;;;;;;25.43;100.00;101025.94;3598839;39;20053;-63
2021/07/12 11:12:50;;;;;;;4.87;4.30;;;;;;;25.70;100.00;101022.81;3592341;39;20071;-63
2021/07/12 11:15:25;;;;;;;4.20;3.80;;;;;;;25.33;100.00;101020.94;3594080;39;20620;-64
2021/07/12 11:18:03;;;;;;;5.10;3.97;;;;;;;25.41;100.00;101021.72;3590051;39;20031;-62